Terminal Aerodrome Forecast
Issued by NWS Sterling, VA

Current Version | Previous Version | Text Only | Print | Product List | Glossary Off
Versions: 1 2 3 4 5 6 7 8 9 10 11 12 13 14 15 16 17 18 19 20 21 22 23 24 25 26 27 28 29 30 31 32 33 34 35

000
FTUS41 KLWX 312102 AAD
TAFIAD
TAF AMD
KIAD 312102Z 3121/0124 VRB15KT P6SM VCTS BKN050CB
      TEMPO 3121/3122 VRB25KT 3SM TSRA BKN030CB
     FM010400 17006KT P6SM BKN050
     FM011600 22006KT P6SM SHRA BKN050=

USA.gov is the U.S. government's official web portal to all federal, state and local government web resources and services.